Kirkstone Pass, United Kingdom
Current Conditions -  °F | °C
As of 7:50 AM on Saturday 20 Dec 2014 (Local Time) from EGOM Reporting Station
Rain Showers Rain Showers  
Wind Chill: 29°   Ceiling: 1400
Heat Index: 39°   Visibility: 6mi
Dew Point: 37°   Wind: 22mph
Humidity: 93%   Direction: 260°W
Pressure: 29.94"   Gusts: NA
Location:  54.47°N, 2.92°W
Report Text: EGOM 200750Z AUTO 26019KT 9000 -SHRA BKN014/// SCT031/// 04/03 Q1014
Loading
Personal Weather Stations






























Interactive Weather Map New forecast layout! Learn more

10-Day Weather Forecast

Advertisements
Track Severe Weather on mobile